Flight Track Log - Related Links

Times and Time Zones

All times are in EDT time to prevent confusion due to time zone crossing. See the KAP21 flight status page for this flight to view local times or setup timezone preferences in your user account.

Time Position Orientation Groundspeed Altitude Reporting Facility
EDT Latitude Longitude Course Direction KTS MPH feet Rate Location/Type
Fri 03:59:03 PM 42.3667 -71.0167 216° Southwest 106 122 400  Level KA90
Fri 03:59:33 PM 42.3500 -71.0333 216° Southwest 116 133 800 938 Climbing KA90
Fri 04:00:39 PM 42.3667 -71.0833 294° West 115 132 1,900 950 Climbing KA90
Fri 04:01:33 PM 42.3667 -71.1333 270° West 123 142 2,700 850 Climbing KA90
Fri 04:02:39 PM 42.3833 -71.1833 294° West 134 154 3,600 756 Climbing KA90
Fri 04:03:40 PM 42.4000 -71.2167 304° West 135 155 4,300 700 Climbing KA90
Fri 04:04:39 PM 42.4333 -71.2333 340° North 136 157 5,000 288 Climbing KA90
Fri 04:05:45 PM 42.4833 -71.2333 360° North 163 188 4,900 104 Descending KA90
Fri 04:06:34 PM 42.5167 -71.2500 340° North 157 181 5,200 400 Climbing KA90
Fri 04:07:45 PM 42.5667 -71.2667 346° North 137 158 5,700 273 Climbing KA90
Fri 04:08:46 PM 42.6167 -71.2833 346° North 149 171 5,800 347 Climbing KA90
Fri 04:09:46 PM 42.6500 -71.2833 360° North 138 159 6,400 500 Climbing KA90
Fri 04:10:46 PM 42.6833 -71.3000 340° North 138 159 6,800 400 Climbing KA90
Fri 04:11:46 PM 42.7167 -71.3167 340° North 141 162 7,200 450 Climbing KA90
Fri 04:12:46 PM 42.7500 -71.3500 324° Northwest 142 163 7,700 400 Climbing KA90
Fri 04:13:46 PM 42.7833 -71.3833 324° Northwest 142 163 8,000 150 Climbing KA90
Fri 04:14:46 PM 42.8167 -71.4167 324° Northwest 163 188 8,000  Level KA90
Fri 04:15:41 PM 42.8500 -71.4500 324° Northwest 163 188 8,000 -50 Level KA90
Fri 04:16:46 PM 42.9000 -71.5000 324° Northwest 166 191 7,900  Descending KA90
Fri 04:17:46 PM 42.9333 -71.5333 324° Northwest 160 184 8,000 150 Climbing KA90
Fri 04:18:46 PM 42.9667 -71.5667 324° Northwest 162 186 8,200 -53 Climbing KA90
Fri 04:19:40 PM 42.9892 -71.6083 306° West 190 219 7,900 -157 Descending Boston Center
Fri 04:20:41 PM 43.0292 -71.6506 322° Northwest 177 204 7,900  Level Boston Center
Fri 04:21:41 PM 43.0586 -71.6814 323° Northwest 160 184 7,900 50 Level Boston Center
Fri 04:22:42 PM 43.0983 -71.7264 320° Northwest 160 184 8,000 50 Climbing Boston Center
Fri 04:23:42 PM 43.1278 -71.7575 322° Northwest 160 184 8,000 -51 Level Boston Center
Fri 04:24:40 PM 43.1697 -71.7994 324° Northwest 160 184 7,900  Descending Boston Center
Fri 04:25:41 PM 43.2011 -71.8364 319° Northwest 160 184 8,000 49 Climbing Boston Center
Fri 04:26:42 PM 43.2411 -71.8814 321° Northwest 160 184 8,000 -298 Level Boston Center
Fri 04:27:42 PM 43.2744 -71.9183 321° Northwest 160 184 7,400 -793 Descending Boston Center
Fri 04:28:43 PM 43.3206 -71.9692 321° Northwest 186 214 6,400 -966 Descending Boston Center
Fri 04:29:40 PM 43.3583 -72.0117 321° Northwest 191 220 5,500 -974 Descending Boston Center
Fri 04:30:40 PM 43.4042 -72.0600 323° Northwest 191 220 4,500 -1,000 Descending Boston Center

Login

Don't have an account? Register now (free) for customized features, flight alerts, and more!